Time;durP1;ratioP1;P1;durP2;ratioP2;P2;SDS_P1;SDS_P2;PMS_P1;PMS_P2;Temp;Humidity;BMP_temperature;BMP_pressure;BME280_temperature;BME280_humidity;BME280_pressure;Samples;Min_cycle;Max_cycle;Signal;HPM_P1;HPM_P2
2022/03/19 00:00:53;;;;;;;27.95;9.35;;;;;;;-2.46;52.22;103098.19;1788238;80;21135;-61
2022/03/19 00:03:22;;;;;;;21.48;9.23;;;;;;;-2.49;52.32;103099.62;1788440;80;21154;-60
2022/03/19 00:05:53;;;;;;;29.23;10.23;;;;;;;-2.50;52.47;103105.45;1788195;79;21088;-62
2022/03/19 00:08:22;;;;;;;27.98;11.20;;;;;;;-2.50;52.48;103104.11;1788560;80;21135;-61
2022/03/19 00:10:53;;;;;;;35.80;11.20;;;;;;;-2.47;52.26;103105.36;1788354;79;21555;-61
2022/03/19 00:13:23;;;;;;;33.00;11.85;;;;;;;-2.44;52.04;103103.05;1788215;80;21154;-61
2022/03/19 00:15:52;;;;;;;31.30;11.38;;;;;;;-2.42;51.93;103102.07;1788287;80;21138;-61
2022/03/19 00:18:24;;;;;;;34.15;11.53;;;;;;;-2.39;51.73;103095.73;1788333;79;21532;-61
2022/03/19 00:20:55;;;;;;;31.40;11.45;;;;;;;-2.41;51.83;103094.43;1788538;79;21562;-60
2022/03/19 00:23:24;;;;;;;28.85;11.57;;;;;;;-2.46;51.88;103091.48;1788384;80;21496;-61
2022/03/19 00:25:53;;;;;;;26.25;9.85;;;;;;;-2.54;51.93;103089.03;1764613;80;21079;-61
2022/03/19 00:28:22;;;;;;;28.38;10.78;;;;;;;-2.59;52.05;103089.63;1782827;80;21142;-61
2022/03/19 00:30:53;;;;;;;30.52;11.53;;;;;;;-2.60;52.12;103087.41;1782781;80;21565;-61
2022/03/19 00:33:22;;;;;;;27.60;10.78;;;;;;;-2.59;52.19;103077.55;1783035;80;21166;-61
2022/03/19 00:35:52;;;;;;;29.05;10.88;;;;;;;-2.57;52.21;103070.34;1782968;79;21577;-62
2022/03/19 00:38:22;;;;;;;29.77;10.30;;;;;;;-2.58;52.19;103073.95;1782740;80;21123;-61
2022/03/19 00:40:51;;;;;;;26.52;10.20;;;;;;;-2.59;52.11;103065.48;1782823;80;21115;-61
2022/03/19 00:43:20;;;;;;;25.68;9.58;;;;;;;-2.61;52.22;103072.67;1782751;80;21130;-62
2022/03/19 00:45:49;;;;;;;24.95;9.08;;;;;;;-2.60;52.28;103073.11;1782838;80;21111;-60
2022/03/19 00:48:19;;;;;;;29.75;9.83;;;;;;;-2.66;52.32;103078.17;1782901;80;21202;-60
2022/03/19 00:50:49;;;;;;;28.70;10.23;;;;;;;-2.69;52.37;103071.56;1782793;79;21573;-60
2022/03/19 00:53:18;;;;;;;23.92;9.88;;;;;;;-2.73;52.37;103070.36;1782893;80;21138;-60
2022/03/19 00:55:49;;;;;;;30.37;10.58;;;;;;;-2.74;52.37;103072.62;1782418;80;21096;-61
2022/03/19 00:58:18;;;;;;;25.90;10.13;;;;;;;-2.74;52.45;103064.58;1782904;80;21209;-62
2022/03/19 01:00:48;;;;;;;26.37;9.08;;;;;;;-2.76;52.66;103065.97;1782737;80;21110;-60
2022/03/19 01:03:18;;;;;;;21.68;9.05;;;;;;;-2.74;52.73;103067.27;1782784;79;21154;-61
2022/03/19 01:05:49;;;;;;;21.93;10.00;;;;;;;-2.71;52.76;103061.80;1782694;80;21123;-61
2022/03/19 01:08:19;;;;;;;25.43;9.00;;;;;;;-2.68;52.76;103063.05;1782687;80;21103;-60
2022/03/19 01:10:52;;;;;;;25.80;9.35;;;;;;;-2.67;52.71;103059.44;1782879;80;21500;-61
2022/03/19 01:13:20;;;;;;;27.90;10.28;;;;;;;-2.68;52.63;103052.31;1782816;79;21150;-61
2022/03/19 01:15:51;;;;;;;23.47;9.25;;;;;;;-2.73;52.66;103061.84;1782448;80;21602;-61
2022/03/19 01:18:22;;;;;;;26.57;11.10;;;;;;;-2.77;52.69;103060.65;1782555;80;21123;-64
2022/03/19 01:20:52;;;;;;;27.10;10.70;;;;;;;-2.83;52.76;103059.49;1782727;80;21633;-60
2022/03/19 01:23:21;;;;;;;28.98;11.00;;;;;;;-2.90;52.96;103065.51;1782822;80;21158;-62
2022/03/19 01:25:50;;;;;;;24.20;11.15;;;;;;;-2.95;53.09;103064.30;1776928;80;21104;-61
2022/03/19 01:28:20;;;;;;;28.67;12.03;;;;;;;-2.96;53.28;103056.30;1774655;81;21116;-61
2022/03/19 01:30:50;;;;;;;26.42;11.73;;;;;;;-3.02;53.41;103060.51;1774388;81;21544;-60
2022/03/19 01:33:19;;;;;;;29.87;11.88;;;;;;;-3.07;53.48;103059.30;1774497;81;21072;-62
2022/03/19 01:35:48;;;;;;;33.63;12.93;;;;;;;-3.11;53.62;103056.75;1774478;81;21083;-60
2022/03/19 01:38:17;;;;;;;34.78;14.00;;;;;;;-3.15;53.75;103058.64;1774530;81;21080;-62
2022/03/19 01:40:46;;;;;;;39.92;15.78;;;;;;;-3.18;53.75;103052.03;1774434;81;21155;-62
2022/03/19 01:43:15;;;;;;;43.00;15.60;;;;;;;-3.21;54.05;103061.05;1774499;81;21088;-61
2022/03/19 01:45:44;;;;;;;41.42;16.42;;;;;;;-3.22;54.10;103055.73;1774440;81;21100;-61
2022/03/19 01:48:13;;;;;;;40.45;15.68;;;;;;;-3.23;54.15;103051.28;1774406;81;21087;-60
2022/03/19 01:50:43;;;;;;;31.68;13.93;;;;;;;-3.27;54.02;103053.60;1774458;79;21540;-61
2022/03/19 01:53:13;;;;;;;37.13;14.65;;;;;;;-3.28;54.25;103054.52;1774357;81;21107;-61
2022/03/19 01:55:43;;;;;;;34.03;13.72;;;;;;;-3.28;54.44;103055.41;1774399;81;21825;-60
2022/03/19 01:58:12;;;;;;;32.00;12.33;;;;;;;-3.26;54.67;103055.36;1774313;81;21087;-61
2022/03/19 02:00:41;;;;;;;35.05;13.40;;;;;;;-3.22;54.85;103053.05;1774875;81;21323;-60
2022/03/19 02:03:13;;;;;;;33.63;12.60;;;;;;;-3.22;54.85;103053.05;1774368;81;21626;-61
2022/03/19 02:05:42;;;;;;;33.90;13.38;;;;;;;-3.27;54.83;103057.63;1774201;79;21136;-62
2022/03/19 02:08:11;;;;;;;30.85;13.05;;;;;;;-3.27;54.83;103057.63;1774633;81;21578;-61
2022/03/19 02:10:41;;;;;;;31.30;12.23;;;;;;;-3.27;54.86;103060.30;1774416;81;21524;-60
2022/03/19 02:13:11;;;;;;;32.55;11.90;;;;;;;-3.27;54.86;103060.30;1774514;81;21530;-61
2022/03/19 02:15:44;;;;;;;34.20;12.75;;;;;;;-3.26;54.73;103060.73;1774670;81;21183;-62
2022/03/19 02:18:14;;;;;;;33.53;12.85;;;;;;;-3.24;54.70;103070.98;1763820;81;21151;-61
2022/03/19 02:20:43;;;;;;;33.95;13.93;;;;;;;-3.24;54.76;103066.50;1774717;79;21107;-62
2022/03/19 02:26:12;;;;;;;37.25;13.43;;;;;;;-3.25;54.87;103067.42;1784002;80;21103;-60
2022/03/19 02:28:43;;;;;;;39.88;14.65;;;;;;;-3.26;54.69;103060.73;1788148;80;21184;-62
2022/03/19 02:31:14;;;;;;;41.25;14.58;;;;;;;-3.37;55.15;103064.17;1788594;80;21150;-62
2022/03/19 02:33:44;;;;;;;47.30;16.67;;;;;;;-3.37;55.15;103064.17;1788551;80;21158;-62
2022/03/19 02:36:16;;;;;;;47.20;17.42;;;;;;;-3.40;55.15;103061.12;1788446;79;21127;-62
2022/03/19 02:38:48;;;;;;;46.50;17.52;;;;;;;-3.43;55.24;103069.24;1788489;80;21107;-62
2022/03/19 02:41:17;;;;;;;61.63;20.80;;;;;;;-3.47;55.44;103064.89;1788227;79;21072;-60
2022/03/19 02:43:48;;;;;;;61.90;22.32;;;;;;;-3.51;55.59;103063.22;1788409;80;21146;-61
2022/03/19 02:46:16;;;;;;;61.95;21.48;;;;;;;-3.55;55.78;103066.90;1788371;80;21146;-61
2022/03/19 02:48:45;;;;;;;66.28;22.17;;;;;;;-3.61;55.98;103065.27;1788695;80;21107;-61
2022/03/19 02:51:14;;;;;;;71.80;24.20;;;;;;;-3.63;56.13;103068.45;1788501;80;21107;-62
2022/03/19 02:53:43;;;;;;;68.02;23.20;;;;;;;-3.64;56.26;103062.67;1788415;80;21158;-60
2022/03/19 02:56:12;;;;;;;64.32;23.45;;;;;;;-3.60;56.35;103076.86;1788488;80;21170;-61
2022/03/19 02:58:40;;;;;;;73.70;26.73;;;;;;;-3.55;56.30;103070.45;1788210;80;21115;-61
2022/03/19 03:01:09;;;;;;;67.75;25.75;;;;;;;-3.50;56.15;103073.02;1788274;80;21586;-60
2022/03/19 03:03:38;;;;;;;61.60;24.30;;;;;;;-3.45;56.05;103077.78;1788193;80;21107;-62
2022/03/19 03:06:08;;;;;;;71.28;25.50;;;;;;;-3.44;56.03;103075.98;1788034;80;21539;-61
2022/03/19 03:08:37;;;;;;;67.72;24.70;;;;;;;-3.47;56.07;103077.41;1790159;80;21122;-60
2022/03/19 03:11:06;;;;;;;76.55;26.50;;;;;;;-3.49;56.20;103078.79;1790448;80;21107;-60
2022/03/19 03:13:35;;;;;;;73.83;24.70;;;;;;;-3.56;56.35;103079.42;1790442;80;21143;-61
2022/03/19 03:16:06;;;;;;;78.80;26.42;;;;;;;-3.56;56.35;103079.42;1789299;80;21142;-61
2022/03/19 03:18:35;;;;;;;85.45;27.07;;;;;;;-3.55;56.45;103085.20;1788357;80;21100;-61
2022/03/19 03:21:06;;;;;;;87.27;28.57;;;;;;;-3.52;56.52;103081.09;1788312;80;21154;-61
2022/03/19 03:23:38;;;;;;;103.25;33.38;;;;;;;-3.44;56.47;103086.70;1788455;80;21115;-58
2022/03/19 03:26:08;;;;;;;113.40;34.63;;;;;;;-3.40;56.50;103085.70;1780584;80;21103;-61
2022/03/19 03:28:37;;;;;;;132.72;39.92;;;;;;;-3.38;56.43;103087.87;1774772;81;21080;-61
2022/03/19 03:31:06;;;;;;;130.52;38.17;;;;;;;-3.36;56.26;103085.58;1774634;81;21127;-61
2022/03/19 03:33:36;;;;;;;148.07;43.87;;;;;;;-3.32;56.19;103083.69;1774481;81;21096;-61
2022/03/19 03:36:06;;;;;;;163.45;49.42;;;;;;;-3.29;56.03;103083.59;1774735;79;21138;-61
2022/03/19 03:38:35;;;;;;;186.52;51.13;;;;;;;-3.26;55.88;103094.23;1774797;81;21582;-60
2022/03/19 03:41:04;;;;;;;163.90;49.25;;;;;;;-3.23;55.78;103096.41;1774912;81;21147;-61
2022/03/19 03:43:34;;;;;;;192.15;53.38;;;;;;;-3.19;55.68;103095.86;1774473;80;21123;-61
2022/03/19 03:46:05;;;;;;;182.35;53.33;;;;;;;-3.20;55.56;103096.78;1774761;81;21585;-61
2022/03/19 03:48:38;;;;;;;192.35;56.53;;;;;;;-3.18;55.46;103094.05;1774794;81;21178;-60
2022/03/19 03:51:06;;;;;;;201.77;59.10;;;;;;;-3.22;55.40;103093.27;1774591;80;21520;-61
2022/03/19 03:53:37;;;;;;;217.28;62.33;;;;;;;-3.24;55.46;103099.13;1774604;79;21193;-60
2022/03/19 03:56:06;;;;;;;223.62;62.93;;;;;;;-3.28;55.56;103103.66;1774424;81;21151;-61
2022/03/19 03:58:36;;;;;;;244.75;68.97;;;;;;;-3.28;55.58;103092.06;1763833;81;21104;-61
2022/03/19 04:01:05;;;;;;;220.07;61.35;;;;;;;-3.28;55.56;103106.81;1774806;81;21111;-60
2022/03/19 04:03:35;;;;;;;235.53;66.40;;;;;;;-3.28;55.67;103097.42;1730988;83;21536;-60
2022/03/19 04:06:04;;;;;;;273.27;76.47;;;;;;;-3.26;55.70;103098.27;1731283;83;21120;-60
2022/03/19 04:08:34;;;;;;;278.98;79.95;;;;;;;-3.27;55.71;103100.06;1654442;86;21159;-61
2022/03/19 04:11:04;;;;;;;332.55;88.37;;;;;;;-3.27;55.69;103093.82;1730993;83;21189;-61
2022/03/19 04:13:36;;;;;;;329.63;93.20;;;;;;;-3.26;55.79;103100.94;1731184;83;21135;-61
2022/03/19 04:16:05;;;;;;;340.70;95.70;;;;;;;-3.25;55.78;103102.27;1730816;83;21127;-60
2022/03/19 04:18:34;;;;;;;346.68;95.65;;;;;;;-3.26;55.78;103102.28;1654358;86;21151;-61
2022/03/19 04:21:03;;;;;;;365.15;100.38;;;;;;;-3.22;55.82;103099.97;1740025;81;21120;-61
2022/03/19 04:23:32;;;;;;;372.82;104.58;;;;;;;-3.19;55.79;103099.88;1774320;81;21155;-61
2022/03/19 04:26:02;;;;;;;372.07;104.53;;;;;;;-3.21;55.68;103101.72;1779586;80;21534;-60
2022/03/19 04:28:31;;;;;;;415.47;113.60;;;;;;;-3.22;55.75;103106.20;1788660;80;21273;-61
2022/03/19 04:31:00;;;;;;;397.10;109.80;;;;;;;-3.20;55.75;103108.84;1788224;80;21115;-60
2022/03/19 04:33:32;;;;;;;397.23;110.70;;;;;;;-3.19;55.75;103105.24;1788301;79;21553;-61
2022/03/19 04:38:49;;;;;;;448.07;123.53;;;;;;;-3.11;55.88;103109.93;1788309;80;21182;-61
2022/03/19 04:41:19;;;;;;;458.92;122.90;;;;;;;-3.11;55.88;103109.93;1788560;80;21147;-61
2022/03/19 04:43:50;;;;;;;446.93;126.15;;;;;;;-3.10;55.70;103107.66;1788248;80;21535;-60
2022/03/19 04:46:19;;;;;;;491.35;141.47;;;;;;;-3.09;55.69;103106.73;1788272;80;21126;-61
2022/03/19 04:48:49;;;;;;;487.72;136.75;;;;;;;-3.10;55.53;103110.34;1788203;80;21570;-60
2022/03/19 04:51:20;;;;;;;493.48;139.72;;;;;;;-3.11;55.43;103107.70;1788253;79;21526;-61
2022/03/19 04:53:52;;;;;;;503.25;139.60;;;;;;;-3.07;55.26;103112.06;1788245;79;21111;-60
2022/03/19 04:56:24;;;;;;;475.75;131.18;;;;;;;-3.07;55.26;103112.06;1788315;80;21111;-60
2022/03/19 04:58:57;;;;;;;482.95;134.43;;;;;;;-2.98;55.13;103116.70;1788406;80;21495;-61
2022/03/19 05:01:27;;;;;;;475.80;136.03;;;;;;;-2.98;55.13;103116.70;1788288;80;21551;-61
2022/03/19 05:03:58;;;;;;;455.50;130.35;;;;;;;-2.80;54.77;103114.41;1788137;80;21142;-61
2022/03/19 05:06:28;;;;;;;470.68;131.80;;;;;;;-2.80;54.77;103114.41;1788631;80;21087;-61
2022/03/19 05:11:35;;;;;;;411.08;113.22;;;;;;;-2.62;54.05;103109.83;1749667;80;21590;-61
2022/03/19 05:14:05;;;;;;;397.40;108.32;;;;;;;-2.52;53.65;103111.34;1788057;80;21115;-60
2022/03/19 05:16:36;;;;;;;379.73;106.58;;;;;;;-2.42;53.27;103114.62;1788416;79;21147;-60
2022/03/19 05:19:06;;;;;;;365.75;100.18;;;;;;;-2.35;52.95;103117.06;1788295;80;21153;-62
2022/03/19 05:21:37;;;;;;;318.35;89.17;;;;;;;-2.28;52.60;103109.69;1788287;79;21178;-60
2022/03/19 05:24:08;;;;;;;299.00;83.07;;;;;;;-2.19;52.25;103119.27;1788387;80;21516;-61
2022/03/19 05:26:40;;;;;;;297.27;76.47;;;;;;;-2.13;51.81;103118.59;1781434;80;21108;-60
2022/03/19 05:29:11;;;;;;;285.15;80.30;;;;;;;-2.07;51.34;103124.23;1774613;79;21100;-61
2022/03/19 05:31:44;;;;;;;303.07;83.75;;;;;;;-2.01;50.98;103114.63;1774492;80;21107;-61
2022/03/19 05:34:29;;;;;;;292.02;79.07;;;;;;;-1.94;50.65;103117.56;1730931;83;21159;-61
2022/03/19 05:37:01;;;;;;;299.85;78.70;;;;;;;-1.88;50.27;103125.89;1731029;83;21575;-61
2022/03/19 05:39:32;;;;;;;250.35;71.77;;;;;;;-1.83;50.05;103130.17;1654748;86;21123;-60
2022/03/19 05:42:05;;;;;;;240.50;68.55;;;;;;;-1.77;49.58;103126.41;1731163;83;21615;-61
2022/03/19 05:44:35;;;;;;;234.57;64.90;;;;;;;-1.70;49.12;103132.87;1731024;83;21147;-61
2022/03/19 05:47:05;;;;;;;224.47;62.55;;;;;;;-1.61;48.62;103133.02;1654978;86;21147;-60
2022/03/19 05:49:34;;;;;;;205.77;54.03;;;;;;;-1.54;48.25;103137.26;1730888;83;21599;-61
2022/03/19 05:52:05;;;;;;;186.45;51.73;;;;;;;-1.49;47.80;103135.75;1746454;81;21516;-61
2022/03/19 05:54:34;;;;;;;166.85;49.35;;;;;;;-1.42;47.58;103138.17;1774481;81;21123;-61
2022/03/19 05:57:05;;;;;;;140.77;41.50;;;;;;;-1.34;47.10;103137.91;1774374;80;21104;-61
2022/03/19 05:59:34;;;;;;;121.13;35.88;;;;;;;-1.27;46.56;103139.95;1774900;81;21547;-61
2022/03/19 06:02:06;;;;;;;100.67;31.85;;;;;;;-1.20;46.08;103138.33;1774457;81;21540;-59
2022/03/19 06:04:35;;;;;;;94.52;29.05;;;;;;;-1.12;45.28;103140.74;1774693;81;21083;-61
2022/03/19 06:07:04;;;;;;;105.43;30.25;;;;;;;-1.04;44.75;103138.19;1774528;81;21562;-62
2022/03/19 06:09:35;;;;;;;90.22;28.70;;;;;;;-0.96;44.27;103146.86;1774422;81;21421;-61
2022/03/19 06:12:08;;;;;;;95.97;29.75;;;;;;;-0.88;43.93;103144.34;1730876;83;21148;-60
2022/03/19 06:14:39;;;;;;;95.00;30.00;;;;;;;-0.83;43.43;103144.59;1654518;86;21606;-61
2022/03/19 06:17:10;;;;;;;86.97;26.35;;;;;;;-0.77;43.06;103133.59;1730905;83;21147;-60
2022/03/19 06:19:40;;;;;;;86.53;27.22;;;;;;;-0.68;42.78;103143.13;1654753;85;21176;-60
2022/03/19 06:22:08;;;;;;;85.32;26.65;;;;;;;-0.61;42.41;103144.69;1730996;83;21229;-61
2022/03/19 06:24:39;;;;;;;87.82;26.27;;;;;;;-0.55;42.36;103143.58;1731092;83;21618;-60
2022/03/19 06:27:09;;;;;;;87.00;25.57;;;;;;;-0.49;41.73;103142.00;1729555;83;21210;-60
2022/03/19 06:29:38;;;;;;;68.35;24.57;;;;;;;-0.43;41.74;103137.25;1742832;80;21544;-61
2022/03/19 06:32:08;;;;;;;80.60;23.15;;;;;;;-0.39;41.31;103142.92;1782693;80;21652;-64
2022/03/19 06:34:39;;;;;;;66.42;23.65;;;;;;;-0.34;41.21;103136.89;1782672;80;21107;-61
2022/03/19 06:37:20;;;;;;;75.78;23.70;;;;;;;-0.27;41.15;103139.34;1782915;80;21127;-60
2022/03/19 06:39:53;;;;;;;69.87;22.82;;;;;;;-0.23;40.97;103139.63;1782887;80;21178;-60
2022/03/19 06:42:22;;;;;;;69.65;23.47;;;;;;;-0.19;40.97;103140.80;1782977;80;21107;-62
2022/03/19 06:44:52;;;;;;;66.37;23.67;;;;;;;-0.15;40.75;103143.77;1782657;79;21735;-61
2022/03/19 06:47:21;;;;;;;76.33;24.98;;;;;;;-0.11;40.64;103145.41;1728683;80;21108;-62
2022/03/19 06:49:51;;;;;;;91.22;25.75;;;;;;;-0.05;40.58;103144.28;1782790;79;21512;-60
2022/03/19 06:52:20;;;;;;;69.47;25.08;;;;;;;-0.02;40.80;103146.38;1782961;80;21111;-60
2022/03/19 06:54:50;;;;;;;72.65;23.70;;;;;;;0.05;40.61;103142.12;1782837;80;21147;-61
2022/03/19 06:57:19;;;;;;;76.67;23.25;;;;;;;0.08;39.78;103136.60;1782799;80;21103;-61
2022/03/19 06:59:49;;;;;;;73.57;23.05;;;;;;;0.10;39.93;103138.30;1783028;80;21107;-60
2022/03/19 07:02:19;;;;;;;64.45;20.65;;;;;;;0.13;39.93;103139.98;1783266;80;21162;-61
2022/03/19 07:04:48;;;;;;;64.65;21.85;;;;;;;0.15;39.62;103141.68;1782780;80;21153;-61
2022/03/19 07:07:18;;;;;;;63.55;18.95;;;;;;;0.18;39.50;103140.20;1782932;80;21543;-60
2022/03/19 07:09:48;;;;;;;52.60;17.87;;;;;;;0.24;39.37;103143.99;1782740;80;21142;-62
2022/03/19 07:12:22;;;;;;;47.65;16.32;;;;;;;0.29;39.05;103149.19;1783169;80;21103;-61
2022/03/19 07:14:51;;;;;;;49.18;16.10;;;;;;;0.35;38.90;103145.36;1783029;80;21539;-61
2022/03/19 07:17:20;;;;;;;44.85;15.08;;;;;;;0.41;38.22;103158.59;1782893;80;21558;-61
2022/03/19 07:19:49;;;;;;;50.55;16.48;;;;;;;0.44;38.17;103152.59;1782940;80;21103;-62
2022/03/19 07:22:19;;;;;;;49.48;17.35;;;;;;;0.48;38.22;103146.59;1782742;80;21589;-60
2022/03/19 07:24:49;;;;;;;57.67;16.48;;;;;;;0.50;38.19;103147.41;1782782;80;21735;-63
2022/03/19 07:27:18;;;;;;;87.37;19.42;;;;;;;0.54;38.09;103142.29;1778678;79;21084;-60
2022/03/19 07:29:46;;;;;;;43.08;14.47;;;;;;;0.59;38.05;103145.66;1774686;80;21614;-62
2022/03/19 07:32:15;;;;;;;32.98;11.63;;;;;;;0.65;38.21;103140.04;1774712;81;21104;-61
2022/03/19 07:34:45;;;;;;;29.12;11.05;;;;;;;0.69;38.05;103137.61;1774869;79;21128;-60
2022/03/19 07:37:15;;;;;;;25.57;9.70;;;;;;;0.73;37.42;103143.28;1774846;81;21104;-60
2022/03/19 07:39:43;;;;;;;28.32;10.88;;;;;;;0.75;37.17;103139.16;1774518;81;21147;-62
2022/03/19 07:42:12;;;;;;;30.27;10.98;;;;;;;0.77;37.04;103142.20;1774912;80;21178;-61
2022/03/19 07:44:43;;;;;;;34.98;11.22;;;;;;;0.79;37.04;103140.31;1774554;81;21563;-61
2022/03/19 07:47:12;;;;;;;24.55;9.28;;;;;;;0.83;37.21;103138.35;1774603;81;21091;-62
2022/03/19 07:49:41;;;;;;;19.57;7.05;;;;;;;0.87;37.18;103139.97;1774723;81;21128;-61
2022/03/19 07:52:11;;;;;;;25.17;7.33;;;;;;;0.89;36.96;103132.21;1774833;81;21154;-59
2022/03/19 07:54:41;;;;;;;17.95;6.70;;;;;;;0.94;36.78;103138.75;1774926;81;21513;-60
2022/03/19 07:57:11;;;;;;;12.65;5.97;;;;;;;0.96;36.93;103139.56;1774489;81;21124;-61
2022/03/19 07:59:41;;;;;;;17.00;6.12;;;;;;;1.06;36.77;103139.55;1774760;81;21159;-62
2022/03/19 08:02:09;;;;;;;12.20;4.95;;;;;;;1.36;36.76;103141.36;1774632;81;21147;-62
2022/03/19 08:04:39;;;;;;;13.18;5.85;;;;;;;1.86;36.60;103143.48;1774721;81;21115;-63
2022/03/19 08:07:08;;;;;;;11.75;4.92;;;;;;;2.45;35.42;103139.67;1774702;81;21079;-61
2022/03/19 08:09:37;;;;;;;9.20;4.12;;;;;;;3.06;34.57;103137.86;1774669;80;21139;-61
2022/03/19 08:12:09;;;;;;;9.48;4.60;;;;;;;3.53;34.04;103133.06;1774527;81;21100;-61
2022/03/19 08:14:40;;;;;;;8.13;4.30;;;;;;;3.98;33.68;103134.56;1774534;81;21127;-60
2022/03/19 08:17:08;;;;;;;11.05;4.95;;;;;;;4.41;33.32;103126.63;1774466;81;21150;-61
2022/03/19 08:19:37;;;;;;;12.60;4.75;;;;;;;4.91;32.61;103124.97;1774472;81;21120;-61
2022/03/19 08:22:08;;;;;;;8.20;5.22;;;;;;;5.48;31.76;103132.31;1772755;81;21141;-61
2022/03/19 08:24:38;;;;;;;10.25;5.35;;;;;;;5.94;30.95;103128.92;1774536;81;21123;-62
2022/03/19 08:27:09;;;;;;;13.08;5.55;;;;;;;6.25;31.01;103116.86;1774514;80;21119;-61
2022/03/19 08:29:39;;;;;;;10.75;5.40;;;;;;;6.57;29.85;103111.98;1774601;80;21112;-60
2022/03/19 08:32:08;;;;;;;12.53;5.47;;;;;;;6.73;29.54;103112.67;1774583;81;21605;-61
2022/03/19 08:34:37;;;;;;;16.97;5.97;;;;;;;6.85;29.52;103116.39;1774570;81;21135;-62
2022/03/19 08:37:07;;;;;;;11.03;5.58;;;;;;;7.00;29.27;103118.05;1774817;81;21115;-62
2022/03/19 08:42:23;;;;;;;10.88;5.60;;;;;;;7.39;28.49;103110.77;1775017;81;21566;-62
2022/03/19 08:44:52;;;;;;;10.05;5.45;;;;;;;7.45;28.64;103104.86;1774774;81;21088;-60
2022/03/19 08:47:21;;;;;;;35.48;7.45;;;;;;;7.48;28.57;103104.64;1774504;81;21100;-61
2022/03/19 08:49:49;;;;;;;16.05;7.05;;;;;;;7.38;28.23;103104.44;1774464;81;21123;-61
2022/03/19 08:52:18;;;;;;;17.48;6.70;;;;;;;7.28;28.60;103109.68;1774525;81;21163;-62
2022/03/19 08:54:47;;;;;;;11.73;5.87;;;;;;;7.27;28.41;103109.79;1774582;81;21147;-63
2022/03/19 08:57:17;;;;;;;11.73;6.35;;;;;;;7.20;28.12;103113.45;1774721;81;21100;-62
2022/03/19 08:59:46;;;;;;;11.63;6.22;;;;;;;7.05;28.37;103110.41;1774674;81;21179;-61
2022/03/19 09:02:16;;;;;;;12.00;6.33;;;;;;;6.86;28.10;103115.41;1772915;81;21112;-62
2022/03/19 09:04:45;;;;;;;11.35;6.00;;;;;;;6.68;28.17;103110.27;1774698;79;21472;-62
2022/03/19 09:07:16;;;;;;;17.73;6.33;;;;;;;6.52;28.66;103119.59;1774836;81;21578;-61
2022/03/19 09:09:45;;;;;;;12.82;6.10;;;;;;;6.40;28.82;103106.30;1774394;79;21088;-61
2022/03/19 09:12:16;;;;;;;12.78;5.90;;;;;;;6.28;28.62;103109.84;1773161;81;21123;-61
2022/03/19 09:14:46;;;;;;;9.68;5.60;;;;;;;6.13;29.20;103104.08;1774511;81;21527;-62
2022/03/19 09:17:15;;;;;;;11.57;5.67;;;;;;;6.01;28.67;103108.48;1774818;79;21147;-62
2022/03/19 09:19:45;;;;;;;14.28;5.55;;;;;;;5.82;29.40;103112.84;1774476;80;21104;-61
2022/03/19 09:22:14;;;;;;;25.08;6.17;;;;;;;5.78;29.63;103112.66;1774775;81;21135;-61
2022/03/19 09:24:43;;;;;;;10.75;5.90;;;;;;;5.66;29.39;103110.73;1774450;81;21634;-61
2022/03/19 09:27:11;;;;;;;11.90;5.35;;;;;;;5.53;29.35;103120.66;1774409;80;21580;-61
2022/03/19 09:29:42;;;;;;;24.77;6.70;;;;;;;5.43;29.64;103118.14;1774475;81;21155;-62
2022/03/19 09:32:12;;;;;;;9.98;5.30;;;;;;;5.36;29.48;103117.17;1774551;81;21135;-61
2022/03/19 09:34:47;;;;;;;11.55;5.10;;;;;;;5.30;29.53;103109.89;1774585;81;21515;-62
2022/03/19 09:37:14;;;;;;;8.70;4.97;;;;;;;5.14;29.32;103115.39;1774753;80;21155;-62
2022/03/19 09:39:43;;;;;;;15.83;5.37;;;;;;;5.02;29.80;103106.64;1775785;81;21166;-61
2022/03/19 09:42:12;;;;;;;11.43;5.65;;;;;;;5.00;29.92;103109.94;1777212;81;21155;-61
2022/03/19 09:44:43;;;;;;;9.40;4.83;;;;;;;5.00;29.73;103112.17;1778654;79;21088;-61
2022/03/19 09:47:13;;;;;;;10.10;5.37;;;;;;;4.99;29.79;103108.19;1778509;81;21115;-62
2022/03/19 09:49:42;;;;;;;10.10;4.78;;;;;;;4.95;29.72;103107.98;1777250;79;21115;-61
2022/03/19 09:52:13;;;;;;;10.45;4.90;;;;;;;4.88;29.76;103100.70;1775168;81;21625;-60
2022/03/19 09:54:44;;;;;;;8.80;4.70;;;;;;;4.85;29.78;103102.25;1774725;81;21127;-61
2022/03/19 09:57:13;;;;;;;14.40;5.90;;;;;;;4.81;29.82;103095.74;1774828;81;21151;-61
2022/03/19 09:59:42;;;;;;;7.85;4.03;;;;;;;4.79;29.76;103093.12;1774497;81;21593;-63
2022/03/19 10:02:11;;;;;;;7.80;4.90;;;;;;;4.76;29.77;103094.18;1774849;81;21100;-60
2022/03/19 10:04:40;;;;;;;9.43;4.85;;;;;;;4.73;29.55;103090.78;1774685;81;21163;-61
2022/03/19 10:09:57;;;;;;;;;;;;;;;4.61;29.39;103092.41;1777390;81;21528;-62
2022/03/19 10:12:29;;;;;;;7.45;4.05;;;;;;;4.58;29.53;103089.88;1774492;80;20154;-60
2022/03/19 10:14:59;;;;;;;13.85;4.30;;;;;;;4.58;29.98;103084.44;1774837;80;21154;-60
2022/03/19 10:17:37;;;;;;;11.70;4.33;;;;;;;4.61;29.55;103085.61;1774400;79;21155;-60
2022/03/19 10:20:12;;;;;;;9.80;4.30;;;;;;;4.62;29.21;103080.57;1774645;81;21108;-61
2022/03/19 10:22:43;;;;;;;11.15;4.33;;;;;;;4.63;28.93;103072.81;1774508;80;21613;-61
2022/03/19 10:25:14;;;;;;;8.75;4.30;;;;;;;4.62;28.82;103076.50;1774752;80;21687;-62
2022/03/19 10:27:44;;;;;;;7.50;3.58;;;;;;;4.63;28.37;103068.73;1778076;80;21091;-62
2022/03/19 10:30:16;;;;;;;6.42;3.70;;;;;;;4.71;28.07;103069.14;1788129;80;21258;-61
2022/03/19 10:32:54;;;;;;;7.22;3.80;;;;;;;4.73;27.94;103066.33;1788342;80;21115;-61
2022/03/19 10:35:31;;;;;;;16.50;4.57;;;;;;;4.73;28.08;103067.69;1788244;80;21185;-61
2022/03/19 10:38:07;;;;;;;9.55;3.77;;;;;;;4.72;28.06;103063.23;1788442;80;21178;-62
2022/03/19 10:40:40;;;;;;;7.58;3.55;;;;;;;4.71;28.18;103069.63;1772652;80;21143;-63
2022/03/19 10:43:10;;;;;;;8.60;3.35;;;;;;;4.66;27.86;103061.77;1788205;79;21166;-63
2022/03/19 10:45:50;;;;;;;13.30;3.98;;;;;;;4.62;27.81;103050.70;1788341;79;21119;-63
2022/03/19 10:48:24;;;;;;;7.95;3.60;;;;;;;4.63;27.93;103048.86;1788275;80;21154;-62
2022/03/19 10:50:53;;;;;;;7.70;3.60;;;;;;;4.65;28.05;103049.16;1788144;80;21142;-62
2022/03/19 10:53:24;;;;;;;6.40;3.50;;;;;;;4.67;28.19;103051.29;1788400;80;21123;-62
2022/03/19 10:55:53;;;;;;;9.08;4.12;;;;;;;4.71;28.07;103046.55;1788168;80;21150;-62
2022/03/19 10:58:23;;;;;;;7.03;3.87;;;;;;;4.72;27.96;103048.29;1788234;80;21152;-63
2022/03/19 11:00:53;;;;;;;9.38;5.08;;;;;;;4.70;28.33;103051.09;1786303;79;21151;-64
2022/03/19 11:03:30;;;;;;;9.55;4.70;;;;;;;4.72;28.25;103042.38;1788165;80;21115;-61
2022/03/19 11:06:04;;;;;;;6.12;3.80;;;;;;;4.74;28.68;103040.92;1788298;80;21257;-62
2022/03/19 11:08:44;;;;;;;10.35;3.90;;;;;;;4.79;28.14;103038.79;1788397;80;21571;-62
2022/03/19 11:11:34;;;;;;;18.10;4.08;;;;;;;4.84;28.24;103033.95;1788241;80;21143;-61
2022/03/19 11:14:03;;;;;;;8.20;3.85;;;;;;;4.86;28.13;103037.44;1783354;79;21143;-62
2022/03/19 11:16:37;;;;;;;8.88;3.70;;;;;;;4.86;28.42;103039.28;1788414;80;21114;-62
2022/03/19 11:19:06;;;;;;;6.28;3.17;;;;;;;4.87;28.28;103041.03;1788316;80;21546;-63
2022/03/19 11:21:35;;;;;;;7.17;3.52;;;;;;;4.87;27.91;103032.39;1788179;80;21117;-62
2022/03/19 11:24:23;;;;;;;9.03;3.58;;;;;;;4.85;27.80;103024.83;1788358;80;21114;-63
2022/03/19 11:26:48;;;;;;;6.60;3.10;;;;;;;4.85;28.08;103034.33;1787954;80;21138;-62
2022/03/19 11:29:19;;;;;;;6.90;3.25;;;;;;;4.90;27.85;103025.41;1788205;80;21092;-63
2022/03/19 11:31:58;;;;;;;5.45;3.05;;;;;;;4.90;27.65;103024.53;1788476;80;21554;-62
2022/03/19 11:34:43;;;;;;;7.45;3.20;;;;;;;4.88;27.60;103023.76;1788236;80;21139;-62
2022/03/19 11:37:12;;;;;;;7.42;3.00;;;;;;;4.90;27.14;103012.31;1773163;80;21142;-63
2022/03/19 11:40:03;;;;;;;6.72;3.25;;;;;;;4.96;26.88;103026.37;1788457;80;21095;-63
2022/03/19 11:42:33;;;;;;;6.72;3.08;;;;;;;5.03;26.62;103020.07;1788313;79;21640;-62